sensor_id;sensor_type;location;lat;lon;timestamp;pressure;altitude;pressure_sealevel;temperature;humidity
71126;BME280;58785;55.566;38.058;2023-09-30T00:01:27;100710.53;;;12.75;81.68
71126;BME280;58785;55.566;38.058;2023-09-30T00:03:53;100714.22;;;12.74;82.03
71126;BME280;58785;55.566;38.058;2023-09-30T00:06:19;100718.41;;;12.76;81.96
71126;BME280;58785;55.566;38.058;2023-09-30T00:08:45;100717.56;;;12.76;82.21
71126;BME280;58785;55.566;38.058;2023-09-30T00:11:11;100710.13;;;12.70;81.73
71126;BME280;58785;55.566;38.058;2023-09-30T00:13:37;100707.75;;;12.66;82.12
71126;BME280;58785;55.566;38.058;2023-09-30T00:16:04;100715.91;;;12.65;81.92
71126;BME280;58785;55.566;38.058;2023-09-30T00:18:29;100713.50;;;12.62;82.06
71126;BME280;58785;55.566;38.058;2023-09-30T00:20:56;100711.16;;;12.59;81.85
71126;BME280;58785;55.566;38.058;2023-09-30T00:23:23;100710.44;;;12.57;82.22
71126;BME280;58785;55.566;38.058;2023-09-30T00:25:49;100718.19;;;12.60;81.96
71126;BME280;58785;55.566;38.058;2023-09-30T00:28:16;100712.28;;;12.56;81.67
71126;BME280;58785;55.566;38.058;2023-09-30T00:30:42;100702.84;;;12.52;81.75
71126;BME280;58785;55.566;38.058;2023-09-30T00:33:12;100715.50;;;12.60;82.27
71126;BME280;58785;55.566;38.058;2023-09-30T00:35:39;100712.97;;;12.58;81.89
71126;BME280;58785;55.566;38.058;2023-09-30T00:38:09;100710.75;;;12.54;82.06
71126;BME280;58785;55.566;38.058;2023-09-30T00:40:36;100702.44;;;12.47;82.17
71126;BME280;58785;55.566;38.058;2023-09-30T00:43:07;100704.41;;;12.55;82.04
71126;BME280;58785;55.566;38.058;2023-09-30T00:45:44;100698.22;;;12.54;81.87
71126;BME280;58785;55.566;38.058;2023-09-30T00:48:10;100698.75;;;12.58;81.95
71126;BME280;58785;55.566;38.058;2023-09-30T00:50:37;100698.19;;;12.64;82.30
71126;BME280;58785;55.566;38.058;2023-09-30T00:53:03;100696.63;;;12.61;82.06
71126;BME280;58785;55.566;38.058;2023-09-30T00:55:30;100695.25;;;12.57;82.24
71126;BME280;58785;55.566;38.058;2023-09-30T00:57:57;100700.44;;;12.59;82.14
71126;BME280;58785;55.566;38.058;2023-09-30T01:00:24;100695.38;;;12.56;81.78
71126;BME280;58785;55.566;38.058;2023-09-30T01:02:53;100682.75;;;12.48;81.63
71126;BME280;58785;55.566;38.058;2023-09-30T01:05:19;100691.59;;;12.49;82.34
71126;BME280;58785;55.566;38.058;2023-09-30T01:07:46;100692.75;;;12.46;82.07
71126;BME280;58785;55.566;38.058;2023-09-30T01:10:12;100673.06;;;12.37;82.40
71126;BME280;58785;55.566;38.058;2023-09-30T01:12:38;100690.50;;;12.42;81.81
71126;BME280;58785;55.566;38.058;2023-09-30T01:15:04;100688.25;;;12.37;82.00
71126;BME280;58785;55.566;38.058;2023-09-30T01:17:31;100690.09;;;12.36;82.00
71126;BME280;58785;55.566;38.058;2023-09-30T01:19:58;100688.41;;;12.35;81.77
71126;BME280;58785;55.566;38.058;2023-09-30T01:22:30;100699.94;;;12.36;82.27
71126;BME280;58785;55.566;38.058;2023-09-30T01:24:56;100687.28;;;12.28;82.40
71126;BME280;58785;55.566;38.058;2023-09-30T01:27:22;100689.56;;;12.33;82.39
71126;BME280;58785;55.566;38.058;2023-09-30T01:29:49;100686.00;;;12.32;82.46
71126;BME280;58785;55.566;38.058;2023-09-30T01:32:16;100689.78;;;12.40;82.13
71126;BME280;58785;55.566;38.058;2023-09-30T01:34:42;100685.28;;;12.40;82.04
71126;BME280;58785;55.566;38.058;2023-09-30T01:37:10;100682.75;;;12.38;81.86
71126;BME280;58785;55.566;38.058;2023-09-30T01:39:36;100680.53;;;12.34;82.32
71126;BME280;58785;55.566;38.058;2023-09-30T01:42:03;100683.31;;;12.32;82.13
71126;BME280;58785;55.566;38.058;2023-09-30T01:44:29;100678.97;;;12.31;82.05
71126;BME280;58785;55.566;38.058;2023-09-30T01:46:56;100671.41;;;12.27;82.15
71126;BME280;58785;55.566;38.058;2023-09-30T01:49:22;100683.31;;;12.32;82.31
71126;BME280;58785;55.566;38.058;2023-09-30T01:51:50;100670.09;;;12.31;82.33
71126;BME280;58785;55.566;38.058;2023-09-30T01:54:16;100677.72;;;12.35;82.13
71126;BME280;58785;55.566;38.058;2023-09-30T01:56:42;100675.72;;;12.37;81.88
71126;BME280;58785;55.566;38.058;2023-09-30T01:59:08;100677.41;;;12.38;82.01
71126;BME280;58785;55.566;38.058;2023-09-30T02:01:35;100679.41;;;12.36;82.05
71126;BME280;58785;55.566;38.058;2023-09-30T02:04:01;100676.28;;;12.41;81.91
71126;BME280;58785;55.566;38.058;2023-09-30T02:06:49;100682.63;;;12.40;82.37
71126;BME280;58785;55.566;38.058;2023-09-30T02:09:15;100682.47;;;12.42;82.07
71126;BME280;58785;55.566;38.058;2023-09-30T02:11:43;100673.75;;;12.40;81.76
71126;BME280;58785;55.566;38.058;2023-09-30T02:14:09;100663.91;;;12.40;81.90
71126;BME280;58785;55.566;38.058;2023-09-30T02:16:40;100654.50;;;12.36;82.29
71126;BME280;58785;55.566;38.058;2023-09-30T02:19:06;100672.06;;;12.38;82.05
71126;BME280;58785;55.566;38.058;2023-09-30T02:21:32;100662.81;;;12.33;82.09
71126;BME280;58785;55.566;38.058;2023-09-30T02:23:58;100665.59;;;12.31;82.19
71126;BME280;58785;55.566;38.058;2023-09-30T02:26:24;100675.59;;;12.29;82.16
71126;BME280;58785;55.566;38.058;2023-09-30T02:28:53;100666.19;;;12.25;82.16
71126;BME280;58785;55.566;38.058;2023-09-30T02:31:19;100659.44;;;12.21;82.12
71126;BME280;58785;55.566;38.058;2023-09-30T02:33:45;100667.47;;;12.21;81.82
71126;BME280;58785;55.566;38.058;2023-09-30T02:36:12;100665.09;;;12.18;82.21
71126;BME280;58785;55.566;38.058;2023-09-30T02:38:39;100662.00;;;12.13;82.13
71126;BME280;58785;55.566;38.058;2023-09-30T02:41:06;100659.91;;;12.07;82.33
71126;BME280;58785;55.566;38.058;2023-09-30T02:43:32;100661.88;;;12.05;82.10
71126;BME280;58785;55.566;38.058;2023-09-30T02:45:59;100666.38;;;12.04;81.98
71126;BME280;58785;55.566;38.058;2023-09-30T02:48:25;100663.56;;;11.96;82.06
71126;BME280;58785;55.566;38.058;2023-09-30T02:50:51;100655.56;;;11.96;82.38
71126;BME280;58785;55.566;38.058;2023-09-30T02:53:21;100658.63;;;12.01;82.43
71126;BME280;58785;55.566;38.058;2023-09-30T02:55:48;100668.75;;;12.07;82.40
71126;BME280;58785;55.566;38.058;2023-09-30T02:58:16;100670.75;;;12.05;82.30
71126;BME280;58785;55.566;38.058;2023-09-30T03:00:48;100663.00;;;12.02;82.53
71126;BME280;58785;55.566;38.058;2023-09-30T03:03:15;100657.63;;;12.02;82.52
71126;BME280;58785;55.566;38.058;2023-09-30T03:05:41;100661.31;;;12.01;82.09
71126;BME280;58785;55.566;38.058;2023-09-30T03:08:08;100657.25;;;11.97;82.02
71126;BME280;58785;55.566;38.058;2023-09-30T03:10:34;100661.75;;;11.97;82.12
71126;BME280;58785;55.566;38.058;2023-09-30T03:13:01;100660.91;;;11.96;83.04
71126;BME280;58785;55.566;38.058;2023-09-30T03:15:28;100656.09;;;12.00;82.84
71126;BME280;58785;55.566;38.058;2023-09-30T03:17:57;100659.63;;;12.00;83.16
71126;BME280;58785;55.566;38.058;2023-09-30T03:20:26;100655.25;;;11.99;83.23
71126;BME280;58785;55.566;38.058;2023-09-30T03:22:52;100650.91;;;11.98;83.38
71126;BME280;58785;55.566;38.058;2023-09-30T03:25:19;100650.91;;;11.98;83.24
71126;BME280;58785;55.566;38.058;2023-09-30T03:27:47;100649.78;;;12.01;83.00
71126;BME280;58785;55.566;38.058;2023-09-30T03:30:14;100645.16;;;12.03;83.28
71126;BME280;58785;55.566;38.058;2023-09-30T03:32:41;100648.38;;;12.06;83.43
71126;BME280;58785;55.566;38.058;2023-09-30T03:35:09;100646.84;;;12.04;83.12
71126;BME280;58785;55.566;38.058;2023-09-30T03:37:45;100651.72;;;12.08;83.05
71126;BME280;58785;55.566;38.058;2023-09-30T03:40:12;100651.72;;;12.08;83.00
71126;BME280;58785;55.566;38.058;2023-09-30T03:42:41;100655.41;;;12.07;82.94
71126;BME280;58785;55.566;38.058;2023-09-30T03:45:11;100657.91;;;12.09;83.42
71126;BME280;58785;55.566;38.058;2023-09-30T03:47:39;100650.75;;;12.09;82.78
71126;BME280;58785;55.566;38.058;2023-09-30T03:50:05;100650.06;;;12.07;83.03
71126;BME280;58785;55.566;38.058;2023-09-30T03:52:38;100651.03;;;12.06;82.83
71126;BME280;58785;55.566;38.058;2023-09-30T03:55:04;100655.41;;;12.07;82.84
71126;BME280;58785;55.566;38.058;2023-09-30T03:57:34;100656.78;;;12.12;82.95
71126;BME280;58785;55.566;38.058;2023-09-30T04:00:01;100660.28;;;12.12;82.55
71126;BME280;58785;55.566;38.058;2023-09-30T04:02:31;100654.00;;;12.13;82.14
71126;BME280;58785;55.566;38.058;2023-09-30T04:04:57;100645.25;;;12.11;82.37
71126;BME280;58785;55.566;38.058;2023-09-30T04:07:24;100644.69;;;12.17;82.10
71126;BME280;58785;55.566;38.058;2023-09-30T04:09:56;100644.53;;;12.19;82.12
71126;BME280;58785;55.566;38.058;2023-09-30T04:12:22;100645.66;;;12.26;81.68
71126;BME280;58785;55.566;38.058;2023-09-30T04:14:51;100642.38;;;12.32;82.16
71126;BME280;58785;55.566;38.058;2023-09-30T04:17:18;100651.09;;;12.44;82.04
71126;BME280;58785;55.566;38.058;2023-09-30T04:19:44;100654.16;;;12.49;81.88
71126;BME280;58785;55.566;38.058;2023-09-30T04:22:11;100655.25;;;12.56;82.46
71126;BME280;58785;55.566;38.058;2023-09-30T04:24:38;100654.22;;;12.66;82.13
71126;BME280;58785;55.566;38.058;2023-09-30T04:27:05;100649.53;;;12.78;81.99
71126;BME280;58785;55.566;38.058;2023-09-30T04:29:33;100652.16;;;12.88;82.15
71126;BME280;58785;55.566;38.058;2023-09-30T04:32:00;100640.69;;;12.95;81.82
71126;BME280;58785;55.566;38.058;2023-09-30T04:34:26;100637.97;;;13.05;82.11
71126;BME280;58785;55.566;38.058;2023-09-30T04:36:54;100640.75;;;13.13;81.88
71126;BME280;58785;55.566;38.058;2023-09-30T04:39:20;100642.91;;;13.28;81.99
71126;BME280;58785;55.566;38.058;2023-09-30T04:41:45;100638.66;;;13.35;82.02
71126;BME280;58785;55.566;38.058;2023-09-30T04:44:12;100642.78;;;13.47;81.83
71126;BME280;58785;55.566;38.058;2023-09-30T04:46:38;100636.88;;;13.61;81.71
71126;BME280;58785;55.566;38.058;2023-09-30T04:49:14;100637.94;;;13.68;81.85
71126;BME280;58785;55.566;38.058;2023-09-30T04:51:40;100651.66;;;13.83;81.56
71126;BME280;58785;55.566;38.058;2023-09-30T04:54:06;100649.00;;;13.91;81.47
71126;BME280;58785;55.566;38.058;2023-09-30T04:56:34;100646.06;;;14.02;81.60
71126;BME280;58785;55.566;38.058;2023-09-30T04:59:01;100654.72;;;14.14;81.01
71126;BME280;58785;55.566;38.058;2023-09-30T05:01:28;100639.50;;;14.23;81.17
71126;BME280;58785;55.566;38.058;2023-09-30T05:03:54;100647.00;;;14.37;81.03
71126;BME280;58785;55.566;38.058;2023-09-30T05:06:20;100651.94;;;14.50;80.77
71126;BME280;58785;55.566;38.058;2023-09-30T05:08:47;100650.47;;;14.55;80.71
71126;BME280;58785;55.566;38.058;2023-09-30T05:11:14;100639.09;;;14.61;80.51
71126;BME280;58785;55.566;38.058;2023-09-30T05:13:41;100642.34;;;14.73;79.87
71126;BME280;58785;55.566;38.058;2023-09-30T05:16:07;100639.50;;;14.83;79.86
71126;BME280;58785;55.566;38.058;2023-09-30T05:18:33;100648.28;;;14.93;79.68
71126;BME280;58785;55.566;38.058;2023-09-30T05:20:59;100636.38;;;14.95;79.40
71126;BME280;58785;55.566;38.058;2023-09-30T05:23:26;100639.59;;;15.07;79.37
71126;BME280;58785;55.566;38.058;2023-09-30T05:25:52;100639.13;;;15.20;78.93
71126;BME280;58785;55.566;38.058;2023-09-30T05:28:20;100627.06;;;15.24;78.93
71126;BME280;58785;55.566;38.058;2023-09-30T05:30:46;100634.47;;;15.38;78.58
71126;BME280;58785;55.566;38.058;2023-09-30T05:33:15;100643.72;;;15.52;78.28
71126;BME280;58785;55.566;38.058;2023-09-30T05:35:42;100644.44;;;15.62;77.84
71126;BME280;58785;55.566;38.058;2023-09-30T05:38:08;100631.00;;;15.70;77.83
71126;BME280;58785;55.566;38.058;2023-09-30T05:40:34;100637.88;;;15.89;77.20
71126;BME280;58785;55.566;38.058;2023-09-30T05:43:00;100636.53;;;16.01;76.64
71126;BME280;58785;55.566;38.058;2023-09-30T05:45:28;100636.16;;;16.21;76.41
71126;BME280;58785;55.566;38.058;2023-09-30T05:47:56;100642.19;;;16.39;76.02
71126;BME280;58785;55.566;38.058;2023-09-30T05:50:27;100645.16;;;16.52;75.49
71126;BME280;58785;55.566;38.058;2023-09-30T05:52:54;100634.19;;;16.62;74.96
71126;BME280;58785;55.566;38.058;2023-09-30T05:55:22;100641.25;;;16.71;74.73
71126;BME280;58785;55.566;38.058;2023-09-30T05:57:49;100630.47;;;16.79;74.15
71126;BME280;58785;55.566;38.058;2023-09-30T06:00:17;100623.47;;;16.93;73.96
71126;BME280;58785;55.566;38.058;2023-09-30T06:02:54;100624.44;;;17.08;73.61
71126;BME280;58785;55.566;38.058;2023-09-30T06:05:21;100618.25;;;17.22;73.35
71126;BME280;58785;55.566;38.058;2023-09-30T06:07:52;100623.00;;;17.43;72.78
71126;BME280;58785;55.566;38.058;2023-09-30T06:10:20;100619.75;;;17.56;72.23
71126;BME280;58785;55.566;38.058;2023-09-30T06:12:50;100606.31;;;17.71;71.74
71126;BME280;58785;55.566;38.058;2023-09-30T06:15:24;100621.47;;;17.95;71.11
71126;BME280;58785;55.566;38.058;2023-09-30T06:17:54;100614.41;;;18.08;70.85
71126;BME280;58785;55.566;38.058;2023-09-30T06:20:21;100617.13;;;18.23;70.85
71126;BME280;58785;55.566;38.058;2023-09-30T06:22:52;100615.34;;;18.30;70.32
71126;BME280;58785;55.566;38.058;2023-09-30T06:25:20;100615.09;;;18.40;70.26
71126;BME280;58785;55.566;38.058;2023-09-30T06:27:48;100611.47;;;18.48;70.04
71126;BME280;58785;55.566;38.058;2023-09-30T06:30:15;100598.22;;;18.53;69.60
71126;BME280;58785;55.566;38.058;2023-09-30T06:32:42;100605.59;;;18.59;69.21
71126;BME280;58785;55.566;38.058;2023-09-30T06:35:09;100600.47;;;18.64;69.32
71126;BME280;58785;55.566;38.058;2023-09-30T06:37:42;100618.34;;;18.80;69.03
71126;BME280;58785;55.566;38.058;2023-09-30T06:40:10;100601.66;;;18.91;68.98
71126;BME280;58785;55.566;38.058;2023-09-30T06:42:39;100604.13;;;19.07;68.53
71126;BME280;58785;55.566;38.058;2023-09-30T06:45:06;100593.66;;;19.19;68.39
71126;BME280;58785;55.566;38.058;2023-09-30T06:47:34;100588.56;;;19.31;68.08
71126;BME280;58785;55.566;38.058;2023-09-30T06:50:01;100595.13;;;19.43;68.01
71126;BME280;58785;55.566;38.058;2023-09-30T06:52:34;100581.88;;;19.48;67.73
71126;BME280;58785;55.566;38.058;2023-09-30T06:55:02;100592.84;;;19.61;67.58
71126;BME280;58785;55.566;38.058;2023-09-30T06:57:35;100597.78;;;19.79;67.16
71126;BME280;58785;55.566;38.058;2023-09-30T07:00:09;100598.50;;;19.88;66.74
71126;BME280;58785;55.566;38.058;2023-09-30T07:02:38;100600.47;;;20.00;66.62
71126;BME280;58785;55.566;38.058;2023-09-30T07:05:11;100600.13;;;20.10;66.35
71126;BME280;58785;55.566;38.058;2023-09-30T07:07:39;100597.25;;;20.18;66.17
71126;BME280;58785;55.566;38.058;2023-09-30T07:10:06;100600.84;;;20.25;66.11
71126;BME280;58785;55.566;38.058;2023-09-30T07:12:32;100588.59;;;20.29;65.95
71126;BME280;58785;55.566;38.058;2023-09-30T07:15:02;100593.22;;;20.42;65.95
71126;BME280;58785;55.566;38.058;2023-09-30T07:17:33;100588.31;;;20.46;65.70
71126;BME280;58785;55.566;38.058;2023-09-30T07:20:01;100595.84;;;20.57;65.57
71126;BME280;58785;55.566;38.058;2023-09-30T07:22:27;100581.91;;;20.60;65.52
71126;BME280;58785;55.566;38.058;2023-09-30T07:24:56;100588.25;;;20.80;65.41
71126;BME280;58785;55.566;38.058;2023-09-30T07:27:23;100591.19;;;20.92;64.94
71126;BME280;58785;55.566;38.058;2023-09-30T07:29:50;100574.13;;;20.98;64.57
71126;BME280;58785;55.566;38.058;2023-09-30T07:32:16;100575.81;;;21.06;64.45
71126;BME280;58785;55.566;38.058;2023-09-30T07:34:44;100572.31;;;21.18;64.23
71126;BME280;58785;55.566;38.058;2023-09-30T07:37:10;100577.78;;;21.32;63.72
71126;BME280;58785;55.566;38.058;2023-09-30T07:39:36;100579.66;;;21.44;63.51
71126;BME280;58785;55.566;38.058;2023-09-30T07:42:03;100570.94;;;21.56;63.45
71126;BME280;58785;55.566;38.058;2023-09-30T07:44:29;100569.66;;;21.71;62.74
71126;BME280;58785;55.566;38.058;2023-09-30T07:46:55;100565.91;;;21.79;62.64
71126;BME280;58785;55.566;38.058;2023-09-30T07:49:21;100568.41;;;21.80;62.20
71126;BME280;58785;55.566;38.058;2023-09-30T07:51:46;100565.47;;;21.82;61.74
71126;BME280;58785;55.566;38.058;2023-09-30T07:54:12;100567.97;;;21.84;61.78
71126;BME280;58785;55.566;38.058;2023-09-30T07:56:39;100553.16;;;21.79;61.48
71126;BME280;58785;55.566;38.058;2023-09-30T07:59:06;100565.28;;;21.90;61.31
71126;BME280;58785;55.566;38.058;2023-09-30T08:01:32;100558.56;;;21.93;61.39
71126;BME280;58785;55.566;38.058;2023-09-30T08:03:58;100561.69;;;22.03;61.58
71126;BME280;58785;55.566;38.058;2023-09-30T08:06:24;100551.91;;;22.08;61.04
71126;BME280;58785;55.566;38.058;2023-09-30T08:08:50;100552.09;;;22.20;60.80
71126;BME280;58785;55.566;38.058;2023-09-30T08:11:18;100547.06;;;22.24;60.41
71126;BME280;58785;55.566;38.058;2023-09-30T08:13:45;100548.94;;;22.36;60.14
71126;BME280;58785;55.566;38.058;2023-09-30T08:16:10;100543.88;;;22.47;60.01
71126;BME280;58785;55.566;38.058;2023-09-30T08:18:36;100545.31;;;22.49;60.06
71126;BME280;58785;55.566;38.058;2023-09-30T08:21:02;100539.66;;;22.51;59.48
71126;BME280;58785;55.566;38.058;2023-09-30T08:23:30;100539.03;;;22.55;59.34
71126;BME280;58785;55.566;38.058;2023-09-30T08:25:59;100537.16;;;22.56;58.72
71126;BME280;58785;55.566;38.058;2023-09-30T08:28:25;100536.72;;;22.59;58.83
71126;BME280;58785;55.566;38.058;2023-09-30T08:30:51;100533.56;;;22.62;58.41
71126;BME280;58785;55.566;38.058;2023-09-30T08:33:20;100529.16;;;22.61;58.50
71126;BME280;58785;55.566;38.058;2023-09-30T08:35:46;100528.31;;;22.67;58.74
71126;BME280;58785;55.566;38.058;2023-09-30T08:38:12;100521.59;;;22.76;58.21
71126;BME280;58785;55.566;38.058;2023-09-30T08:40:38;100524.25;;;22.83;58.15
71126;BME280;58785;55.566;38.058;2023-09-30T08:43:04;100520.50;;;22.84;57.72
71126;BME280;58785;55.566;38.058;2023-09-30T08:45:33;100516.75;;;22.85;57.29
71126;BME280;58785;55.566;38.058;2023-09-30T08:47:59;100524.91;;;22.85;57.14
71126;BME280;58785;55.566;38.058;2023-09-30T08:50:32;100507.31;;;22.87;57.61
71126;BME280;58785;55.566;38.058;2023-09-30T08:53:00;100509.78;;;22.96;57.54
71126;BME280;58785;55.566;38.058;2023-09-30T08:55:29;100519.16;;;23.00;57.10
71126;BME280;58785;55.566;38.058;2023-09-30T08:57:57;100515.84;;;22.98;56.73
71126;BME280;58785;55.566;38.058;2023-09-30T09:00:24;100515.41;;;22.94;56.79
71126;BME280;58785;55.566;38.058;2023-09-30T09:02:50;100515.22;;;22.96;57.07
71126;BME280;58785;55.566;38.058;2023-09-30T09:05:16;100511.84;;;23.00;56.98
71126;BME280;58785;55.566;38.058;2023-09-30T09:07:42;100511.16;;;23.05;56.29
71126;BME280;58785;55.566;38.058;2023-09-30T09:10:11;100510.53;;;23.09;55.89
71126;BME280;58785;55.566;38.058;2023-09-30T09:12:40;100501.69;;;23.14;55.37
71126;BME280;58785;55.566;38.058;2023-09-30T09:15:08;100507.31;;;23.19;55.36
71126;BME280;58785;55.566;38.058;2023-09-30T09:17:45;100493.50;;;23.20;55.65
71126;BME280;58785;55.566;38.058;2023-09-30T09:20:16;100494.28;;;23.28;55.21
71126;BME280;58785;55.566;38.058;2023-09-30T09:22:47;100505.09;;;23.34;55.27
71126;BME280;58785;55.566;38.058;2023-09-30T09:25:13;100502.38;;;23.34;54.99
71126;BME280;58785;55.566;38.058;2023-09-30T09:27:39;100495.03;;;23.35;55.04
71126;BME280;58785;55.566;38.058;2023-09-30T09:30:25;100500.66;;;23.40;54.68
71126;BME280;58785;55.566;38.058;2023-09-30T09:33:04;100481.63;;;23.40;54.31
71126;BME280;58785;55.566;38.058;2023-09-30T09:35:36;100487.25;;;23.45;54.01
71126;BME280;58785;55.566;38.058;2023-09-30T09:38:07;100483.28;;;23.41;54.36
71126;BME280;58785;55.566;38.058;2023-09-30T09:40:35;100479.72;;;23.40;54.06
71126;BME280;58785;55.566;38.058;2023-09-30T09:43:02;100483.72;;;23.38;53.65
71126;BME280;58785;55.566;38.058;2023-09-30T09:45:36;100486.69;;;23.36;53.58
71126;BME280;58785;55.566;38.058;2023-09-30T09:48:06;100486.13;;;23.28;53.60
71126;BME280;58785;55.566;38.058;2023-09-30T09:50:33;100481.09;;;23.24;53.01
71126;BME280;58785;55.566;38.058;2023-09-30T09:53:01;100482.16;;;23.23;53.09
71126;BME280;58785;55.566;38.058;2023-09-30T09:55:30;100477.53;;;23.24;53.00
71126;BME280;58785;55.566;38.058;2023-09-30T09:57:57;100467.72;;;23.23;52.77
71126;BME280;58785;55.566;38.058;2023-09-30T10:00:26;100475.22;;;23.28;52.77
71126;BME280;58785;55.566;38.058;2023-09-30T10:02:52;100469.38;;;23.24;52.92
71126;BME280;58785;55.566;38.058;2023-09-30T10:05:20;100468.34;;;23.25;52.26
71126;BME280;58785;55.566;38.058;2023-09-30T10:08:03;100469.84;;;23.21;51.88
71126;BME280;58785;55.566;38.058;2023-09-30T10:10:35;100462.56;;;23.15;52.26
71126;BME280;58785;55.566;38.058;2023-09-30T10:13:02;100468.00;;;23.15;52.04
71126;BME280;58785;55.566;38.058;2023-09-30T10:18:04;100464.00;;;23.17;52.15
71126;BME280;58785;55.566;38.058;2023-09-30T10:20:40;100453.34;;;23.16;52.20
71126;BME280;58785;55.566;38.058;2023-09-30T10:23:26;100464.78;;;23.24;51.72
71126;BME280;58785;55.566;38.058;2023-09-30T10:26:13;100462.69;;;23.27;52.08
71126;BME280;58785;55.566;38.058;2023-09-30T10:28:41;100451.63;;;23.21;51.85
71126;BME280;58785;55.566;38.058;2023-09-30T10:31:20;100458.28;;;23.26;52.08
71126;BME280;58785;55.566;38.058;2023-09-30T10:36:39;100455.72;;;23.31;52.07
71126;BME280;58785;55.566;38.058;2023-09-30T10:39:11;100451.50;;;23.35;51.90
71126;BME280;58785;55.566;38.058;2023-09-30T10:46:53;100451.91;;;23.38;51.24
71126;BME280;58785;55.566;38.058;2023-09-30T10:51:56;100443.22;;;23.23;51.33
71126;BME280;58785;55.566;38.058;2023-09-30T10:54:30;100446.84;;;23.17;51.74
71126;BME280;58785;55.566;38.058;2023-09-30T10:56:58;100446.75;;;23.05;52.03
71126;BME280;58785;55.566;38.058;2023-09-30T10:59:27;100429.16;;;23.01;52.07
71126;BME280;58785;55.566;38.058;2023-09-30T11:01:53;100432.47;;;23.10;51.98
71126;BME280;58785;55.566;38.058;2023-09-30T11:04:19;100441.00;;;23.13;51.76
71126;BME280;58785;55.566;38.058;2023-09-30T11:06:46;100419.69;;;23.10;51.13
71126;BME280;58785;55.566;38.058;2023-09-30T11:09:17;100429.50;;;23.11;51.00
71126;BME280;58785;55.566;38.058;2023-09-30T11:11:45;100419.31;;;23.07;51.13
71126;BME280;58785;55.566;38.058;2023-09-30T11:16:52;100412.84;;;23.01;50.87
71126;BME280;58785;55.566;38.058;2023-09-30T11:19:19;100417.22;;;23.02;51.36
71126;BME280;58785;55.566;38.058;2023-09-30T11:21:49;100408.25;;;23.02;50.99
71126;BME280;58785;55.566;38.058;2023-09-30T11:24:16;100405.16;;;22.98;51.14
71126;BME280;58785;55.566;38.058;2023-09-30T11:26:46;100399.63;;;23.05;51.46
71126;BME280;58785;55.566;38.058;2023-09-30T11:29:14;100396.31;;;23.03;51.16
71126;BME280;58785;55.566;38.058;2023-09-30T11:31:46;100402.16;;;23.06;51.11
71126;BME280;58785;55.566;38.058;2023-09-30T11:34:15;100397.38;;;23.02;51.09
71126;BME280;58785;55.566;38.058;2023-09-30T11:36:52;100402.00;;;22.94;50.99
71126;BME280;58785;55.566;38.058;2023-09-30T11:39:29;100400.44;;;22.87;51.60
71126;BME280;58785;55.566;38.058;2023-09-30T11:41:59;100389.53;;;22.87;51.87
71126;BME280;58785;55.566;38.058;2023-09-30T11:44:26;100394.31;;;22.91;51.72
71126;BME280;58785;55.566;38.058;2023-09-30T11:46:59;100383.06;;;22.88;51.26
71126;BME280;58785;55.566;38.058;2023-09-30T11:49:40;100384.88;;;22.94;51.61
71126;BME280;58785;55.566;38.058;2023-09-30T11:52:09;100376.50;;;22.96;51.30
71126;BME280;58785;55.566;38.058;2023-09-30T11:54:43;100383.84;;;22.95;50.89
71126;BME280;58785;55.566;38.058;2023-09-30T11:57:17;100382.44;;;22.86;50.49
71126;BME280;58785;55.566;38.058;2023-09-30T11:59:45;100385.34;;;22.84;50.75
71126;BME280;58785;55.566;38.058;2023-09-30T12:02:13;100379.09;;;22.84;50.65
71126;BME280;58785;55.566;38.058;2023-09-30T12:04:46;100376.78;;;22.81;50.62
71126;BME280;58785;55.566;38.058;2023-09-30T12:07:15;100374.94;;;22.75;50.85
71126;BME280;58785;55.566;38.058;2023-09-30T12:09:41;100380.59;;;22.73;50.24
71126;BME280;58785;55.566;38.058;2023-09-30T12:12:08;100367.91;;;22.67;50.25
71126;BME280;58785;55.566;38.058;2023-09-30T12:14:39;100367.31;;;22.65;50.63
71126;BME280;58785;55.566;38.058;2023-09-30T12:17:05;100362.28;;;22.62;50.23
71126;BME280;58785;55.566;38.058;2023-09-30T12:19:37;100370.84;;;22.65;50.55
71126;BME280;58785;55.566;38.058;2023-09-30T12:22:03;100371.03;;;22.64;50.52
71126;BME280;58785;55.566;38.058;2023-09-30T12:24:29;100364.84;;;22.57;50.28
71126;BME280;58785;55.566;38.058;2023-09-30T12:26:54;100356.47;;;22.58;50.34
71126;BME280;58785;55.566;38.058;2023-09-30T12:29:21;100370.06;;;22.58;50.49
71126;BME280;58785;55.566;38.058;2023-09-30T12:31:49;100363.56;;;22.59;50.77
71126;BME280;58785;55.566;38.058;2023-09-30T12:34:16;100361.72;;;22.53;50.41
71126;BME280;58785;55.566;38.058;2023-09-30T12:36:43;100355.06;;;22.49;50.51
71126;BME280;58785;55.566;38.058;2023-09-30T12:39:10;100345.88;;;22.44;50.78
71126;BME280;58785;55.566;38.058;2023-09-30T12:41:40;100347.63;;;22.38;50.67
71126;BME280;58785;55.566;38.058;2023-09-30T12:44:07;100347.63;;;22.38;50.89
71126;BME280;58785;55.566;38.058;2023-09-30T12:46:34;100351.81;;;22.34;51.08
71126;BME280;58785;55.566;38.058;2023-09-30T12:49:03;100340.38;;;22.25;50.59
71126;BME280;58785;55.566;38.058;2023-09-30T12:51:29;100345.19;;;22.23;50.71
71126;BME280;58785;55.566;38.058;2023-09-30T12:53:56;100349.41;;;22.19;50.92
71126;BME280;58785;55.566;38.058;2023-09-30T12:56:23;100344.63;;;22.15;51.31
71126;BME280;58785;55.566;38.058;2023-09-30T12:58:49;100333.75;;;22.15;51.16
71126;BME280;58785;55.566;38.058;2023-09-30T13:01:16;100337.72;;;22.12;51.32